Time;durP1;ratioP1;P1;durP2;ratioP2;P2;SDS_P1;SDS_P2;PMS_P1;PMS_P2;Temp;Humidity;BMP_temperature;BMP_pressure;BME280_temperature;BME280_humidity;BME280_pressure;Samples;Min_cycle;Max_cycle;Signal;HPM_P1;HPM_P2
2023/04/12 00:00:10;;;;;;;3.58;3.28;;;12.90;99.90;;;;;;5111621;28;20253;-77
2023/04/12 00:02:38;;;;;;;5.45;3.08;;;12.90;99.90;;;;;;5111739;28;20208;-76
2023/04/12 00:05:08;;;;;;;5.85;3.30;;;12.90;99.90;;;;;;5111124;28;20247;-75
2023/04/12 00:07:37;;;;;;;6.28;3.50;;;12.90;99.90;;;;;;5112122;28;20201;-77
2023/04/12 00:10:05;;;;;;;7.07;3.38;;;13.00;99.90;;;;;;5111051;28;20301;-77
2023/04/12 00:12:32;;;;;;;3.80;3.17;;;12.70;99.90;;;;;;5111696;28;20279;-77
2023/04/12 00:15:01;;;;;;;4.65;2.63;;;12.80;99.90;;;;;;5111014;28;20235;-79
2023/04/12 00:17:28;;;;;;;4.57;3.58;;;12.80;99.90;;;;;;5110743;28;20208;-77
2023/04/12 00:19:56;;;;;;;5.07;3.05;;;12.80;99.90;;;;;;5111508;28;20228;-75
2023/04/12 00:22:23;;;;;;;4.68;3.28;;;12.80;99.90;;;;;;5111760;28;20249;-75
2023/04/12 00:24:50;;;;;;;4.93;3.15;;;12.80;99.90;;;;;;5111663;28;20659;-77
2023/04/12 00:27:17;;;;;;;3.92;2.95;;;12.80;99.90;;;;;;5111131;28;20702;-76
2023/04/12 00:29:44;;;;;;;4.90;3.65;;;12.70;99.90;;;;;;5111508;28;20237;-76
2023/04/12 00:32:12;;;;;;;8.02;3.58;;;12.60;99.90;;;;;;5110900;28;20231;-75
2023/04/12 00:34:39;;;;;;;5.10;3.33;;;12.60;99.90;;;;;;5111142;28;20237;-77
2023/04/12 00:37:06;;;;;;;3.53;3.20;;;12.70;99.90;;;;;;5110950;28;20240;-77
2023/04/12 00:39:33;;;;;;;3.78;3.03;;;12.70;99.90;;;;;;5111120;28;20239;-75
2023/04/12 00:42:03;;;;;;;4.05;3.25;;;12.60;99.90;;;;;;5111017;28;20298;-78
2023/04/12 00:44:31;;;;;;;4.18;3.70;;;12.40;99.90;;;;;;5111254;28;20265;-73
2023/04/12 00:46:59;;;;;;;3.42;3.13;;;12.40;99.90;;;;;;5110616;28;20201;-73
2023/04/12 00:49:29;;;;;;;6.72;3.63;;;12.40;99.90;;;;;;5111214;28;20236;-73
2023/04/12 00:52:03;;;;;;;3.22;2.92;;;12.50;99.90;;;;;;5110843;28;20205;-73
2023/04/12 00:54:31;;;;;;;3.58;2.67;;;12.50;99.90;;;;;;5111258;28;20211;-77
2023/04/12 00:56:58;;;;;;;4.05;2.80;;;12.40;99.90;;;;;;5110820;28;20200;-75
2023/04/12 00:59:25;;;;;;;3.60;2.67;;;12.40;99.90;;;;;;5111530;28;20257;-77
2023/04/12 01:01:52;;;;;;;4.63;3.53;;;12.40;99.90;;;;;;5111220;28;20201;-77
2023/04/12 01:04:21;;;;;;;3.78;2.97;;;12.30;99.90;;;;;;5110565;28;20553;-79
2023/04/12 01:07:08;;;;;;;3.45;3.15;;;12.40;99.90;;;;;;5111261;28;20208;-78
2023/04/12 01:09:44;;;;;;;3.65;3.17;;;12.30;99.90;;;;;;5110961;28;20299;-80
2023/04/12 01:12:20;;;;;;;4.32;3.13;;;12.30;99.90;;;;;;5110325;28;20695;-80
2023/04/12 01:15:02;;;;;;;4.18;3.45;;;12.20;99.90;;;;;;5110790;28;20283;-79
2023/04/12 01:17:36;;;;;;;4.10;2.83;;;12.30;99.90;;;;;;5110646;28;20579;-79
2023/04/12 01:20:12;;;;;;;4.40;3.45;;;12.30;99.90;;;;;;5110628;28;20196;-83
2023/04/12 01:23:17;;;;;;;4.07;3.00;;;12.30;99.90;;;;;;5111172;28;20215;-83
2023/04/12 01:25:59;;;;;;;4.53;2.50;;;12.30;99.90;;;;;;5063514;28;20215;-81
2023/04/12 01:28:33;;;;;;;4.90;3.05;;;12.30;99.90;;;;;;5111266;28;20232;-77
2023/04/12 01:31:02;;;;;;;6.30;3.17;;;12.30;99.90;;;;;;5114020;28;20196;-77
2023/04/12 01:33:31;;;;;;;4.30;3.28;;;12.20;99.90;;;;;;5114450;28;20267;-81
2023/04/12 01:36:00;;;;;;;4.28;2.95;;;12.00;99.90;;;;;;5114367;28;20223;-76
2023/04/12 01:38:28;;;;;;;5.15;2.55;;;11.90;99.90;;;;;;5114512;28;20645;-77
2023/04/12 01:40:56;;;;;;;4.10;2.88;;;12.00;99.90;;;;;;5114496;28;20201;-75
2023/04/12 01:43:23;;;;;;;5.78;3.03;;;11.90;99.90;;;;;;5114757;28;20255;-78
2023/04/12 01:45:51;;;;;;;5.18;3.28;;;12.00;99.90;;;;;;5114000;28;20668;-79
2023/04/12 01:48:19;;;;;;;3.83;3.35;;;12.00;99.90;;;;;;5113874;28;20244;-77
2023/04/12 01:51:00;;;;;;;5.32;2.78;;;12.10;99.90;;;;;;5114147;28;20603;-80
2023/04/12 01:53:32;;;;;;;4.32;3.03;;;12.10;99.90;;;;;;5114215;28;20318;-79
2023/04/12 01:56:02;;;;;;;3.40;2.78;;;12.10;99.90;;;;;;5113754;28;20235;-78
2023/04/12 01:58:29;;;;;;;5.43;2.38;;;12.20;99.90;;;;;;5114001;28;20679;-79
2023/04/12 02:00:59;;;;;;;3.08;2.88;;;12.20;99.90;;;;;;5114020;28;20216;-78
2023/04/12 02:03:29;;;;;;;3.38;3.08;;;12.20;99.90;;;;;;5114150;28;20203;-79
2023/04/12 02:05:58;;;;;;;3.88;2.65;;;12.20;99.90;;;;;;5114001;28;20751;-78
2023/04/12 02:08:25;;;;;;;5.00;3.60;;;12.10;99.90;;;;;;5114104;28;20232;-77
2023/04/12 02:10:53;;;;;;;3.35;3.00;;;12.20;99.90;;;;;;5113937;28;20248;-80
2023/04/12 02:13:20;;;;;;;4.03;3.13;;;12.20;99.90;;;;;;5114076;28;20232;-81
2023/04/12 02:15:47;;;;;;;3.65;2.70;;;11.90;99.90;;;;;;5113526;28;20239;-81
2023/04/12 02:18:16;;;;;;;4.00;3.30;;;11.90;99.90;;;;;;5113299;28;20552;-79
2023/04/12 02:20:43;;;;;;;5.68;2.83;;;12.00;99.90;;;;;;5113744;28;20251;-78
2023/04/12 02:23:10;;;;;;;4.32;2.70;;;12.00;99.90;;;;;;5113371;28;20207;-78
2023/04/12 02:25:38;;;;;;;5.50;2.67;;;11.90;99.90;;;;;;5113484;28;20224;-79
2023/04/12 02:28:05;;;;;;;3.50;2.50;;;11.70;99.90;;;;;;5113119;28;20223;-79
2023/04/12 02:30:32;;;;;;;4.18;2.50;;;11.70;99.90;;;;;;5113609;28;20200;-79
2023/04/12 02:33:01;;;;;;;5.45;3.05;;;11.60;99.90;;;;;;5113243;28;20313;-79
2023/04/12 02:35:31;;;;;;;5.15;3.25;;;11.40;99.90;;;;;;5113399;28;20227;-77
2023/04/12 02:37:58;;;;;;;4.10;2.70;;;11.60;99.90;;;;;;5112920;28;20291;-78
2023/04/12 02:40:26;;;;;;;3.20;2.90;;;11.70;99.90;;;;;;5112745;28;20254;-74
2023/04/12 02:42:52;;;;;;;4.30;2.58;;;11.70;99.90;;;;;;5113757;28;20288;-79
2023/04/12 02:45:19;;;;;;;4.50;2.90;;;11.60;99.90;;;;;;5112409;28;20577;-80
2023/04/12 02:47:46;;;;;;;3.72;3.10;;;11.60;99.90;;;;;;5113256;28;20232;-79
2023/04/12 02:50:13;;;;;;;7.00;3.72;;;11.60;99.90;;;;;;5112637;28;20296;-79
2023/04/12 02:52:41;;;;;;;3.95;3.15;;;11.60;99.90;;;;;;5112829;28;20271;-79
2023/04/12 02:55:09;;;;;;;6.07;3.42;;;11.40;99.90;;;;;;5112955;28;20232;-79
2023/04/12 02:57:36;;;;;;;5.35;3.30;;;11.50;99.90;;;;;;5112867;28;20284;-79
2023/04/12 03:00:10;;;;;;;4.22;2.70;;;11.30;99.90;;;;;;5112677;28;20205;-80
2023/04/12 03:02:37;;;;;;;5.32;2.67;;;11.00;99.90;;;;;;5112753;28;20288;-78
2023/04/12 03:05:06;;;;;;;3.40;2.97;;;11.00;99.90;;;;;;5112379;28;20246;-79
2023/04/12 03:07:32;;;;;;;6.15;3.60;;;11.00;99.90;;;;;;5112969;28;20292;-79
2023/04/12 03:10:01;;;;;;;4.97;4.07;;;10.80;99.90;;;;;;5112387;28;20204;-78
2023/04/12 03:12:28;;;;;;;3.70;3.13;;;10.90;99.90;;;;;;5112523;28;20213;-79
2023/04/12 03:14:55;;;;;;;5.55;4.28;;;11.00;99.90;;;;;;5112470;28;20204;-76
2023/04/12 03:17:22;;;;;;;4.10;3.55;;;11.20;99.90;;;;;;5112805;28;20668;-81
2023/04/12 03:19:50;;;;;;;6.40;4.97;;;11.10;99.90;;;;;;5112509;28;20204;-82
2023/04/12 03:22:16;;;;;;;4.65;3.97;;;11.00;99.90;;;;;;5112305;28;20212;-82
2023/04/12 03:24:45;;;;;;;7.60;5.38;;;10.70;99.90;;;;;;5112356;28;20247;-80
2023/04/12 03:27:13;;;;;;;4.93;4.47;;;10.80;99.90;;;;;;5111869;28;20211;-80
2023/04/12 03:29:41;;;;;;;7.15;3.90;;;10.90;99.90;;;;;;5112340;28;20652;-79
2023/04/12 03:32:08;;;;;;;7.13;4.38;;;10.70;99.90;;;;;;5111939;28;20249;-81
2023/04/12 03:34:34;;;;;;;4.20;3.80;;;10.60;99.90;;;;;;5112206;28;20324;-80
2023/04/12 03:37:02;;;;;;;6.87;3.77;;;10.70;99.90;;;;;;5112021;28;20689;-79
2023/04/12 03:39:29;;;;;;;6.68;3.20;;;10.50;99.90;;;;;;5112035;28;20240;-80
2023/04/12 03:41:56;;;;;;;4.13;3.67;;;10.70;99.90;;;;;;5110500;28;20251;-79
2023/04/12 03:44:25;;;;;;;5.07;3.33;;;10.60;99.90;;;;;;5110547;28;20236;-79
2023/04/12 03:46:52;;;;;;;6.20;3.87;;;10.60;99.90;;;;;;5111902;28;20204;-79
2023/04/12 03:49:19;;;;;;;4.32;3.30;;;10.70;99.90;;;;;;5111745;28;20205;-76
2023/04/12 03:51:49;;;;;;;3.90;3.60;;;10.70;99.90;;;;;;5111098;28;20209;-78
2023/04/12 03:54:16;;;;;;;4.70;4.28;;;10.60;99.90;;;;;;5110945;28;20228;-77
2023/04/12 03:56:43;;;;;;;3.40;2.88;;;10.70;99.90;;;;;;5111799;28;20228;-77
2023/04/12 03:59:10;;;;;;;4.40;3.47;;;10.60;99.90;;;;;;5111494;28;20324;-81
2023/04/12 04:01:38;;;;;;;8.52;4.18;;;10.70;99.90;;;;;;5111411;28;20676;-79
2023/04/12 04:04:06;;;;;;;8.90;3.85;;;10.70;99.90;;;;;;5110908;28;20228;-78
2023/04/12 04:06:33;;;;;;;5.05;4.38;;;10.70;99.90;;;;;;5111622;28;20205;-78
2023/04/12 04:09:00;;;;;;;4.17;3.27;;;10.70;99.90;;;;;;5110736;28;20248;-79
2023/04/12 04:11:27;;;;;;;3.17;2.87;;;10.60;99.90;;;;;;5111382;28;20248;-78
2023/04/12 04:13:57;;;;;;;10.50;4.47;;;10.50;99.90;;;;;;5111405;28;20272;-79
2023/04/12 04:16:25;;;;;;;6.37;4.17;;;10.50;99.90;;;;;;5111752;28;20244;-78
2023/04/12 04:18:53;;;;;;;5.57;3.00;;;10.50;99.90;;;;;;5111775;28;20295;-80
2023/04/12 04:21:21;;;;;;;4.50;3.13;;;10.50;99.90;;;;;;5111034;28;20200;-79
2023/04/12 04:23:50;;;;;;;3.93;3.30;;;10.60;99.90;;;;;;5111255;28;20668;-80
2023/04/12 04:26:19;;;;;;;4.23;3.83;;;10.60;99.90;;;;;;5110739;28;20201;-79
2023/04/12 04:28:49;;;;;;;5.85;4.50;;;10.60;99.90;;;;;;5111252;28;20251;-77
2023/04/12 04:31:17;;;;;;;4.93;3.63;;;10.70;99.90;;;;;;5110823;28;20654;-75
2023/04/12 04:33:43;;;;;;;8.35;4.38;;;10.80;99.90;;;;;;5111324;28;20319;-84
2023/04/12 04:36:14;;;;;;;4.50;4.00;;;10.70;99.90;;;;;;5110977;28;20228;-83
2023/04/12 04:38:41;;;;;;;4.40;3.85;;;10.60;99.90;;;;;;5110774;28;20241;-82
2023/04/12 04:41:09;;;;;;;5.07;3.55;;;10.60;99.90;;;;;;5110461;28;20605;-82
2023/04/12 04:43:38;;;;;;;3.67;3.37;;;10.60;99.90;;;;;;5111195;28;20560;-81
2023/04/12 04:46:06;;;;;;;4.83;3.63;;;10.60;99.90;;;;;;5110945;28;20265;-83
2023/04/12 04:48:33;;;;;;;5.50;3.57;;;10.50;99.90;;;;;;5110881;28;20257;-79
2023/04/12 04:51:00;;;;;;;5.40;4.17;;;10.50;99.90;;;;;;5110548;28;20212;-80
2023/04/12 04:53:29;;;;;;;4.07;3.30;;;10.50;99.90;;;;;;5110672;28;20236;-79
2023/04/12 04:55:58;;;;;;;6.72;4.53;;;10.50;99.90;;;;;;5110939;28;20201;-81
2023/04/12 04:58:25;;;;;;;6.87;4.13;;;10.50;99.90;;;;;;5111643;28;20200;-83
2023/04/12 05:00:58;;;;;;;4.30;3.90;;;10.40;99.90;;;;;;5111355;28;20235;-81
2023/04/12 05:03:26;;;;;;;5.45;4.53;;;10.40;99.90;;;;;;5111360;28;20216;-76
2023/04/12 05:05:54;;;;;;;5.73;4.57;;;10.30;99.90;;;;;;5115020;28;20675;-76
2023/04/12 05:08:21;;;;;;;5.72;4.70;;;10.40;99.90;;;;;;5114924;28;21060;-80
2023/04/12 05:10:53;;;;;;;7.35;5.20;;;10.40;99.90;;;;;;5114675;28;20671;-79
2023/04/12 05:13:21;;;;;;;5.57;4.90;;;10.20;99.90;;;;;;5114731;28;20756;-79
2023/04/12 05:15:48;;;;;;;6.15;4.40;;;10.10;99.90;;;;;;5114901;28;20572;-80
2023/04/12 05:18:16;;;;;;;4.77;4.30;;;10.10;99.90;;;;;;5114176;28;20204;-79
2023/04/12 05:20:43;;;;;;;4.63;3.30;;;10.20;99.90;;;;;;5114489;28;20205;-79
2023/04/12 05:23:10;;;;;;;4.90;3.80;;;10.10;99.90;;;;;;5114407;28;20278;-78
2023/04/12 05:25:37;;;;;;;8.23;4.83;;;10.10;99.90;;;;;;5114827;28;20290;-82
2023/04/12 05:28:12;;;;;;;5.23;4.43;;;10.30;99.90;;;;;;5114197;28;20238;-80
2023/04/12 05:30:39;;;;;;;15.97;4.77;;;10.20;99.90;;;;;;5114380;28;20188;-78
2023/04/12 05:33:06;;;;;;;12.07;5.07;;;10.40;99.90;;;;;;5113726;28;20201;-79
2023/04/12 05:35:34;;;;;;;6.20;4.17;;;10.40;99.90;;;;;;5114526;28;20237;-77
2023/04/12 05:38:01;;;;;;;5.72;4.55;;;10.40;99.90;;;;;;5113569;28;20251;-75
2023/04/12 05:40:30;;;;;;;5.28;3.92;;;10.30;99.90;;;;;;5114617;28;20222;-82
2023/04/12 05:42:57;;;;;;;5.78;4.78;;;10.20;99.90;;;;;;5113870;28;20205;-77
2023/04/12 05:45:26;;;;;;;7.50;4.37;;;10.20;99.90;;;;;;5114319;28;20692;-80
2023/04/12 05:47:53;;;;;;;5.47;3.97;;;10.30;99.90;;;;;;5114554;28;20196;-82
2023/04/12 05:50:21;;;;;;;5.90;4.22;;;10.50;99.90;;;;;;5114082;28;20724;-81
2023/04/12 05:52:48;;;;;;;6.05;4.25;;;10.60;99.90;;;;;;5113791;28;20201;-77
2023/04/12 05:55:16;;;;;;;7.20;4.37;;;10.70;99.90;;;;;;5113367;28;20246;-82
2023/04/12 05:57:46;;;;;;;6.30;4.53;;;10.80;99.90;;;;;;5114201;28;20201;-81
2023/04/12 06:00:17;;;;;;;7.47;5.38;;;10.80;99.90;;;;;;5113619;28;20724;-76
2023/04/12 06:02:47;;;;;;;8.73;4.90;;;10.80;99.90;;;;;;5113797;28;20656;-80
2023/04/12 06:05:16;;;;;;;5.97;4.53;;;10.80;99.90;;;;;;5113143;28;20237;-81
2023/04/12 06:07:45;;;;;;;6.13;4.82;;;10.80;99.90;;;;;;5113669;28;20250;-80
2023/04/12 06:10:14;;;;;;;7.80;4.97;;;11.00;99.90;;;;;;5113213;28;20606;-79
2023/04/12 06:12:41;;;;;;;6.00;5.28;;;11.10;99.90;;;;;;5113875;28;20201;-80
2023/04/12 06:15:10;;;;;;;8.40;5.80;;;11.00;99.90;;;;;;5112262;28;20650;-81
2023/04/12 06:17:38;;;;;;;7.47;5.30;;;11.00;99.90;;;;;;5113876;28;20691;-81
2023/04/12 06:20:08;;;;;;;6.83;5.23;;;11.20;99.90;;;;;;5113220;28;20204;-77
2023/04/12 06:22:35;;;;;;;8.05;5.13;;;11.20;99.90;;;;;;5113333;28;20201;-79
2023/04/12 06:25:02;;;;;;;6.85;5.50;;;11.30;99.90;;;;;;5112769;28;20710;-80
2023/04/12 06:27:29;;;;;;;10.00;6.28;;;11.60;99.90;;;;;;5113343;28;20684;-81
2023/04/12 06:29:57;;;;;;;10.45;5.63;;;11.90;99.90;;;;;;5113588;28;20232;-77
2023/04/12 06:32:24;;;;;;;8.07;5.60;;;12.30;99.90;;;;;;5112303;27;20205;-82
2023/04/12 06:34:51;;;;;;;6.03;5.25;;;12.40;99.90;;;;;;5113287;28;20286;-77
2023/04/12 06:37:19;;;;;;;8.57;6.38;;;12.40;99.90;;;;;;5111581;28;20563;-80
2023/04/12 06:39:47;;;;;;;6.13;4.30;;;12.40;99.90;;;;;;5092443;28;20255;-78
2023/04/12 06:42:14;;;;;;;9.85;6.40;;;12.30;99.90;;;;;;5092764;28;20201;-75
2023/04/12 06:44:41;;;;;;;12.60;5.95;;;12.30;99.90;;;;;;5092921;28;20205;-80
2023/04/12 06:47:08;;;;;;;7.65;5.90;;;12.20;99.90;;;;;;5092406;28;20688;-82
2023/04/12 06:49:35;;;;;;;9.93;6.47;;;12.30;99.90;;;;;;5093993;28;20237;-84
2023/04/12 06:52:02;;;;;;;7.43;5.07;;;12.40;99.90;;;;;;5111435;27;20201;-81
2023/04/12 06:54:30;;;;;;;8.30;6.63;;;12.40;99.90;;;;;;5110140;27;20260;-78
2023/04/12 06:56:57;;;;;;;9.10;5.15;;;12.40;99.90;;;;;;5112958;28;20239;-72
2023/04/12 06:59:24;;;;;;;7.20;4.75;;;12.50;99.90;;;;;;5111206;28;20296;-82
2023/04/12 07:01:51;;;;;;;7.05;5.60;;;12.60;99.90;;;;;;5127216;27;20257;-82
2023/04/12 07:04:18;;;;;;;5.57;4.95;;;12.80;99.90;;;;;;5112980;27;20215;-83
2023/04/12 07:06:45;;;;;;;7.40;4.93;;;12.70;99.90;;;;;;5112312;28;20274;-82
2023/04/12 07:09:12;;;;;;;12.68;5.50;;;12.70;99.90;;;;;;5110902;28;20250;-82
2023/04/12 07:11:40;;;;;;;7.10;5.68;;;12.90;99.90;;;;;;5112705;28;20239;-86
2023/04/12 07:14:07;;;;;;;7.80;5.13;;;12.90;99.90;;;;;;5112215;28;20229;-83
2023/04/12 07:16:34;;;;;;;7.30;5.32;;;13.00;99.90;;;;;;5110864;28;20244;-79
2023/04/12 07:19:01;;;;;;;7.30;6.40;;;13.20;99.90;;;;;;5111353;28;20233;-78
2023/04/12 07:21:28;;;;;;;6.22;5.35;;;13.10;99.90;;;;;;5112355;28;20243;-79
2023/04/12 07:23:55;;;;;;;8.68;5.65;;;13.10;99.90;;;;;;5112496;28;20241;-79
2023/04/12 07:26:23;;;;;;;10.20;5.95;;;13.10;99.90;;;;;;5112115;28;20232;-79
2023/04/12 07:28:51;;;;;;;6.93;5.20;;;13.10;99.90;;;;;;5112374;28;20244;-78
2023/04/12 07:31:18;;;;;;;8.70;4.47;;;13.30;99.90;;;;;;5110523;28;20233;-79
2023/04/12 07:33:45;;;;;;;7.75;5.43;;;13.30;99.90;;;;;;5110689;28;20265;-80
2023/04/12 07:36:12;;;;;;;6.70;5.35;;;13.20;99.90;;;;;;5111222;28;20274;-80
2023/04/12 07:38:39;;;;;;;9.35;5.65;;;13.40;99.90;;;;;;5111591;28;20223;-82
2023/04/12 07:41:06;;;;;;;6.65;4.60;;;13.50;99.90;;;;;;5111917;28;20228;-80
2023/04/12 07:43:33;;;;;;;6.65;4.60;;;13.50;99.90;;;;;;5111999;28;20232;-82
2023/04/12 07:46:06;;;;;;;4.95;4.45;;;13.80;99.90;;;;;;5109695;28;20240;-80
2023/04/12 07:48:33;;;;;;;8.25;4.65;;;13.60;99.90;;;;;;5110307;28;20568;-80
2023/04/12 07:51:00;;;;;;;4.78;4.13;;;13.80;99.90;;;;;;5111640;28;20231;-80
2023/04/12 07:53:28;;;;;;;10.77;5.47;;;14.00;99.90;;;;;;5111958;28;20724;-82
2023/04/12 07:55:56;;;;;;;6.28;4.93;;;13.80;99.90;;;;;;5111959;28;20681;-75
2023/04/12 07:58:24;;;;;;;5.30;4.80;;;14.10;99.90;;;;;;5112185;28;20239;-80
2023/04/12 08:00:53;;;;;;;7.82;5.22;;;14.10;99.90;;;;;;5112067;28;20209;-78
2023/04/12 08:03:21;;;;;;;6.85;4.03;;;13.90;99.90;;;;;;5110935;28;20204;-79
2023/04/12 08:05:52;;;;;;;8.18;4.93;;;14.20;99.90;;;;;;5111829;28;20235;-77
2023/04/12 08:08:19;;;;;;;7.78;5.15;;;14.40;99.90;;;;;;5111345;28;20208;-76
2023/04/12 08:10:46;;;;;;;5.35;4.85;;;14.50;99.90;;;;;;5111491;28;20252;-78
2023/04/12 08:13:13;;;;;;;4.88;3.38;;;14.50;99.90;;;;;;5111313;28;20209;-78
2023/04/12 08:15:40;;;;;;;5.13;3.85;;;14.60;99.90;;;;;;5111267;28;20232;-78
2023/04/12 08:18:07;;;;;;;6.13;3.70;;;14.70;99.90;;;;;;5111281;28;20246;-78
2023/04/12 08:20:36;;;;;;;10.05;5.32;;;14.70;99.90;;;;;;5111616;28;20239;-79
2023/04/12 08:23:03;;;;;;;7.60;3.70;;;14.70;99.90;;;;;;5111212;28;20201;-77
2023/04/12 08:25:30;;;;;;;6.45;3.33;;;14.80;99.90;;;;;;5111484;28;20235;-78
2023/04/12 08:27:57;;;;;;;4.05;3.50;;;14.70;99.90;;;;;;5110732;28;20201;-72
2023/04/12 08:30:25;;;;;;;4.72;3.50;;;14.90;99.90;;;;;;5110858;28;20699;-77
2023/04/12 08:32:52;;;;;;;9.32;5.00;;;14.90;99.90;;;;;;5111691;28;20204;-77
2023/04/12 08:35:19;;;;;;;7.38;4.78;;;14.90;99.90;;;;;;5110769;28;20320;-78
2023/04/12 08:37:48;;;;;;;7.57;3.53;;;15.10;99.90;;;;;;5111269;28;20205;-78
2023/04/12 08:40:15;;;;;;;5.88;3.35;;;15.20;99.90;;;;;;5110474;28;20205;-76
2023/04/12 08:42:43;;;;;;;4.63;2.95;;;15.30;99.90;;;;;;5111359;28;20228;-77
2023/04/12 08:45:11;;;;;;;6.60;3.38;;;15.30;99.90;;;;;;5111076;28;20239;-77
2023/04/12 08:47:40;;;;;;;5.45;3.53;;;15.40;99.90;;;;;;5111158;28;20232;-78
2023/04/12 08:50:09;;;;;;;4.10;3.28;;;15.30;99.90;;;;;;5110841;28;20196;-78
2023/04/12 08:52:37;;;;;;;4.95;3.42;;;15.30;99.90;;;;;;5111204;28;20212;-77
2023/04/12 08:55:07;;;;;;;4.93;2.30;;;15.60;99.90;;;;;;5110588;28;20273;-77
2023/04/12 08:57:35;;;;;;;5.78;2.45;;;15.70;99.90;;;;;;5111315;28;20282;-77
2023/04/12 09:00:03;;;;;;;3.95;3.03;;;15.70;99.90;;;;;;5110416;28;20220;-76
2023/04/12 09:02:30;;;;;;;2.50;2.30;;;15.70;99.90;;;;;;5111184;28;20292;-77
2023/04/12 09:04:57;;;;;;;6.15;2.30;;;15.80;99.90;;;;;;5110817;28;20243;-71
2023/04/12 09:07:26;;;;;;;4.35;2.53;;;15.90;99.90;;;;;;5111445;28;20201;-76
2023/04/12 09:09:54;;;;;;;3.70;3.00;;;16.00;99.90;;;;;;5109772;28;20672;-75
2023/04/12 09:12:23;;;;;;;2.33;2.03;;;16.10;99.90;;;;;;5109841;28;20228;-75
2023/04/12 09:15:06;;;;;;;6.45;2.47;;;16.20;99.90;;;;;;5109716;28;20229;-76
2023/04/12 09:17:35;;;;;;;4.05;2.30;;;16.20;99.90;;;;;;5108779;28;20291;-76
2023/04/12 09:20:03;;;;;;;6.57;3.65;;;16.30;99.90;;;;;;5112978;28;20722;-74
2023/04/12 09:22:35;;;;;;;5.00;3.22;;;16.40;99.90;;;;;;5090540;28;20601;-80
2023/04/12 09:25:02;;;;;;;6.25;2.97;;;16.60;99.90;;;;;;5105246;28;20200;-77
2023/04/12 09:27:30;;;;;;;2.72;2.13;;;16.60;99.90;;;;;;5131495;28;20272;-76
2023/04/12 09:30:07;;;;;;;4.20;3.25;;;16.50;99.90;;;;;;5090014;28;20248;-71
2023/04/12 09:32:34;;;;;;;2.10;1.90;;;16.60;99.90;;;;;;5094586;28;20240;-83
2023/04/12 09:35:04;;;;;;;3.10;2.47;;;16.60;99.90;;;;;;5110319;28;20315;-76
2023/04/12 09:37:31;;;;;;;2.40;1.98;;;16.90;99.90;;;;;;5108511;28;20202;-79
2023/04/12 09:40:03;;;;;;;3.00;2.38;;;17.10;99.90;;;;;;5109441;28;20236;-81
2023/04/12 09:42:33;;;;;;;3.15;2.42;;;17.40;99.90;;;;;;5110396;28;20240;-76
2023/04/12 09:45:01;;;;;;;6.70;2.38;;;17.50;99.90;;;;;;5110038;28;20248;-77
2023/04/12 09:47:39;;;;;;;6.22;3.10;;;17.40;99.90;;;;;;5110622;28;20244;-75
2023/04/12 09:50:07;;;;;;;3.75;2.60;;;17.70;99.90;;;;;;5108466;28;20211;-77
2023/04/12 09:52:38;;;;;;;8.10;3.60;;;17.70;99.90;;;;;;5113028;28;20236;-81
2023/04/12 09:55:09;;;;;;;6.40;3.42;;;17.70;99.90;;;;;;5107160;28;20228;-78
2023/04/12 09:57:40;;;;;;;3.60;2.55;;;18.00;99.90;;;;;;5113942;28;20295;-78
2023/04/12 10:00:13;;;;;;;8.10;2.50;;;17.90;99.90;;;;;;5116069;27;20232;-80
2023/04/12 10:02:42;;;;;;;5.38;2.72;;;18.20;99.90;;;;;;5098473;28;20218;-81
2023/04/12 10:05:12;;;;;;;4.47;2.55;;;18.00;99.90;;;;;;5113722;28;20209;-83
2023/04/12 10:07:41;;;;;;;3.35;2.35;;;18.00;99.90;;;;;;5114036;28;20200;-79
2023/04/12 10:10:11;;;;;;;5.03;2.60;;;18.20;99.90;;;;;;5113162;28;20205;-82
2023/04/12 10:12:40;;;;;;;3.92;2.60;;;18.10;99.90;;;;;;5113588;28;20296;-82
2023/04/12 10:15:12;;;;;;;2.05;1.70;;;18.10;99.90;;;;;;5113332;28;20228;-79
2023/04/12 10:17:43;;;;;;;5.20;2.75;;;18.00;99.90;;;;;;5113787;28;20228;-81
2023/04/12 10:20:11;;;;;;;4.50;2.15;;;18.00;99.90;;;;;;5113830;28;20235;-81
2023/04/12 10:22:40;;;;;;;3.30;2.00;;;18.10;99.90;;;;;;5113028;28;20205;-81
2023/04/12 10:25:12;;;;;;;3.10;1.95;;;18.10;99.90;;;;;;5113500;28;20208;-82
2023/04/12 10:27:42;;;;;;;5.80;2.92;;;18.10;99.90;;;;;;5114009;28;20306;-81
2023/04/12 10:30:27;;;;;;;3.97;2.30;;;18.40;99.90;;;;;;5113538;28;20258;-82
2023/04/12 10:33:16;;;;;;;5.75;2.42;;;18.50;99.90;;;;;;5114232;28;20295;-81
2023/04/12 10:35:55;;;;;;;2.92;2.17;;;18.50;99.90;;;;;;5113541;28;20264;-82
2023/04/12 10:38:25;;;;;;;4.15;2.33;;;18.40;99.90;;;;;;5113665;27;20212;-81
2023/04/12 10:41:23;;;;;;;3.30;2.10;;;18.10;99.90;;;;;;5113489;28;20219;-82
2023/04/12 10:43:52;;;;;;;7.15;2.72;;;18.30;99.90;;;;;;5070739;28;20210;-81
2023/04/12 10:46:47;;;;;;;5.20;2.67;;;18.40;99.90;;;;;;5103496;28;20217;-83
2023/04/12 10:49:15;;;;;;;4.82;2.22;;;18.50;99.90;;;;;;5109372;28;20232;-81
2023/04/12 10:52:13;;;;;;;3.03;1.90;;;18.90;99.90;;;;;;5112583;27;20280;-84
2023/04/12 10:54:40;;;;;;;3.38;2.42;;;19.00;99.90;;;;;;5111964;27;20288;-81
2023/04/12 10:57:08;;;;;;;2.15;1.90;;;18.80;99.90;;;;;;5091973;28;20616;-82
2023/04/12 10:59:58;;;;;;;5.38;3.08;;;18.90;99.90;;;;;;5112157;27;20695;-80
2023/04/12 11:02:25;;;;;;;4.88;2.10;;;19.10;99.90;;;;;;5112639;28;20209;-82
2023/04/12 11:05:08;;;;;;;1.85;1.65;;;19.10;99.90;;;;;;5111792;28;20208;-80
2023/04/12 11:07:43;;;;;;;3.85;1.60;;;18.90;99.90;;;;;;5113018;28;20212;-77
2023/04/12 11:10:14;;;;;;;4.45;2.00;;;18.50;99.90;;;;;;5110739;28;20242;-79
2023/04/12 11:12:42;;;;;;;2.42;2.22;;;18.20;99.90;;;;;;5112638;28;20287;-79
2023/04/12 11:15:13;;;;;;;3.97;2.97;;;18.00;99.90;;;;;;5113467;27;20203;-80
2023/04/12 11:17:40;;;;;;;6.10;2.30;;;18.00;99.90;;;;;;5121145;27;20240;-80
2023/04/12 11:20:12;;;;;;;7.00;2.75;;;17.90;99.90;;;;;;5112353;28;20208;-76
2023/04/12 11:22:39;;;;;;;1.92;1.83;;;18.00;99.90;;;;;;5112250;28;20212;-78
2023/04/12 11:25:07;;;;;;;4.07;2.30;;;17.90;99.90;;;;;;5111204;28;20200;-76
2023/04/12 11:27:36;;;;;;;3.63;1.63;;;17.70;99.90;;;;;;5111875;28;20591;-74
2023/04/12 11:30:04;;;;;;;4.95;1.77;;;17.50;99.90;;;;;;5111720;28;20723;-78
2023/04/12 11:32:34;;;;;;;2.95;2.03;;;17.50;99.90;;;;;;5094415;28;20212;-77
2023/04/12 11:35:01;;;;;;;4.95;3.10;;;17.50;99.90;;;;;;5111849;28;20200;-75
2023/04/12 11:37:30;;;;;;;4.38;2.00;;;17.60;99.90;;;;;;5111823;28;20323;-76
2023/04/12 11:39:58;;;;;;;6.35;2.90;;;17.60;99.90;;;;;;5111427;28;20262;-78
2023/04/12 11:42:28;;;;;;;4.90;1.92;;;17.60;99.90;;;;;;5112096;28;20205;-75
2023/04/12 11:44:55;;;;;;;2.20;1.98;;;17.50;99.90;;;;;;5110292;28;20197;-75
2023/04/12 11:47:23;;;;;;;4.47;2.28;;;17.40;99.90;;;;;;5112132;28;20211;-75
2023/04/12 11:49:53;;;;;;;2.33;2.13;;;17.30;99.90;;;;;;5112034;28;20208;-77
2023/04/12 11:52:21;;;;;;;5.70;1.77;;;17.20;99.90;;;;;;5111679;28;20265;-81
2023/04/12 11:54:50;;;;;;;4.95;3.03;;;17.10;99.90;;;;;;5112066;28;20201;-78
2023/04/12 11:57:18;;;;;;;2.92;2.38;;;17.10;99.90;;;;;;5110930;28;20243;-80
2023/04/12 11:59:47;;;;;;;1.95;1.45;;;17.10;99.90;;;;;;5111294;28;20205;-81
2023/04/12 12:02:15;;;;;;;3.72;2.35;;;17.20;99.90;;;;;;5113252;28;20215;-82
2023/04/12 12:04:44;;;;;;;3.60;2.40;;;17.20;99.90;;;;;;5112765;28;20257;-84
2023/04/12 12:07:13;;;;;;;3.60;2.08;;;17.00;99.90;;;;;;5111675;28;20220;-83
2023/04/12 12:09:41;;;;;;;3.80;2.40;;;17.00;99.90;;;;;;5111871;28;20683;-79
2023/04/12 12:12:08;;;;;;;3.00;2.17;;;17.00;99.90;;;;;;5111006;28;20240;-82
2023/04/12 12:14:36;;;;;;;4.05;2.03;;;16.90;99.90;;;;;;5111077;28;20205;-80
2023/04/12 12:17:09;;;;;;;4.13;2.10;;;16.80;99.90;;;;;;5111207;28;20258;-79
2023/04/12 12:19:38;;;;;;;4.35;2.10;;;16.60;99.90;;;;;;5111746;28;20197;-82
2023/04/12 12:22:12;;;;;;;3.88;2.97;;;16.50;99.90;;;;;;5111763;28;20205;-87
2023/04/12 12:24:44;;;;;;;3.83;2.53;;;16.60;99.90;;;;;;5111534;28;20229;-82
2023/04/12 12:27:11;;;;;;;5.30;2.65;;;16.50;99.90;;;;;;5111409;28;20282;-83
2023/04/12 12:29:38;;;;;;;3.22;2.45;;;16.40;99.90;;;;;;5111718;28;20228;-79
2023/04/12 12:32:13;;;;;;;3.75;2.97;;;16.50;99.90;;;;;;5111172;28;20236;-81
2023/04/12 12:34:41;;;;;;;3.42;2.15;;;16.40;99.90;;;;;;5112108;28;20671;-82
2023/04/12 12:37:12;;;;;;;8.45;2.72;;;16.20;99.90;;;;;;5111307;28;20264;-80
2023/04/12 12:40:00;;;;;;;5.10;3.13;;;16.20;99.90;;;;;;5111267;28;20204;-83
2023/04/12 12:42:27;;;;;;;4.75;2.75;;;16.10;99.90;;;;;;5111419;28;20196;-83
2023/04/12 12:44:54;;;;;;;5.43;2.90;;;15.80;99.90;;;;;;5111835;28;20205;-80
2023/04/12 12:47:21;;;;;;;2.92;2.63;;;15.60;99.90;;;;;;5111558;28;20204;-79
2023/04/12 12:49:48;;;;;;;3.47;2.95;;;15.60;99.90;;;;;;5111712;28;20261;-80
2023/04/12 12:52:15;;;;;;;2.72;2.50;;;15.60;99.90;;;;;;5110628;28;20254;-80
2023/04/12 12:54:43;;;;;;;6.85;3.60;;;15.50;99.90;;;;;;5111374;28;20702;-87